Gallatin Field
KBZN : now visible

Airfield :











YOU CAN JOIN US ON...

 
LOGIN :

Register | Disclaimer

   EN    FR    IT 

 









Legend :    VFR   Marginal VFR   IFR   Intensive IFR   Very Intensive IFR
Visi :
Ceiling :
>= 8 km
>= 3000ft
5 to 8 km
1000 to 3000 ft
1500m to 5 km
500 to 1000 ft
800 to 1500m
200 to 500 ft
< 800m
< 200 ft
Symbols :   Thunderstorms  Fog  Heavy snow  Heavy precipitations  Wind > 20 kt






- Airport Elevation : 4473 ft
- IATA code : BZN


KBZN - Gallatin Field

CURRENT METAR :
  • 071456Z 00000KT 10SM CLR 16/10 A3001 RMK AO2 SLP127 T01610100 53015

EXPIRED METARs :
  • 071356Z 27004KT 10SM CLR 14/09 A2999 RMK AO2 SLP123 T01440094
  • 071256Z 14005KT 10SM CLR 11/09 A2997 RMK AO2 SLP123 T01110089

TAF KBZN
Valid from the 07 at 12:00 until the 08 at 18:00 UTC


071138Z 0712/0818 VRB06KT P6SM FEW200
KZLC FIR / North America



MET'MAP, your aeronautical weather chart ! - Copyright ORBIFLY December 2007 - Disclaimer

ORBIFLY MET'MAP TEAM :

Programming & Development : Alexandra Zaïnal
Concept & original design : Baudouin d'Aumeries
Assistance for programming : Marc-Olivier Méhu
Technical & hardware support : Manuel Goepfert

Contact : metmap@orbifly.com




SOURCES & CREDITS :

   NOAA       Earth
Advisory